sensor_id;sensor_type;location;lat;lon;timestamp;P1;durP1;ratioP1;P2;durP2;ratioP2
65469;SDS011;52067;50.710;14.492;2023-03-01T00:02:18;61.75;;;21.10;;
65469;SDS011;52067;50.710;14.492;2023-03-01T00:04:44;63.42;;;24.77;;
65469;SDS011;52067;50.710;14.492;2023-03-01T00:07:10;64.45;;;22.75;;
65469;SDS011;52067;50.710;14.492;2023-03-01T00:09:35;50.20;;;18.73;;
65469;SDS011;52067;50.710;14.492;2023-03-01T00:12:02;63.03;;;22.20;;
65469;SDS011;52067;50.710;14.492;2023-03-01T00:14:27;59.00;;;19.90;;
65469;SDS011;52067;50.710;14.492;2023-03-01T00:16:52;68.50;;;24.63;;
65469;SDS011;52067;50.710;14.492;2023-03-01T00:19:19;63.30;;;21.80;;
65469;SDS011;52067;50.710;14.492;2023-03-01T00:21:46;59.50;;;21.98;;
65469;SDS011;52067;50.710;14.492;2023-03-01T00:24:12;69.70;;;26.23;;
65469;SDS011;52067;50.710;14.492;2023-03-01T00:26:38;58.50;;;22.00;;
65469;SDS011;52067;50.710;14.492;2023-03-01T00:29:03;61.33;;;22.58;;
65469;SDS011;52067;50.710;14.492;2023-03-01T00:31:29;60.08;;;21.60;;
65469;SDS011;52067;50.710;14.492;2023-03-01T00:33:56;67.95;;;22.25;;
65469;SDS011;52067;50.710;14.492;2023-03-01T00:36:29;72.13;;;24.13;;
65469;SDS011;52067;50.710;14.492;2023-03-01T00:38:55;66.30;;;23.05;;
65469;SDS011;52067;50.710;14.492;2023-03-01T00:41:21;68.80;;;24.13;;
65469;SDS011;52067;50.710;14.492;2023-03-01T00:43:48;64.82;;;23.83;;
65469;SDS011;52067;50.710;14.492;2023-03-01T00:46:15;70.13;;;23.95;;
65469;SDS011;52067;50.710;14.492;2023-03-01T00:48:42;60.60;;;22.08;;
65469;SDS011;52067;50.710;14.492;2023-03-01T00:51:19;65.07;;;23.20;;
65469;SDS011;52067;50.710;14.492;2023-03-01T00:53:46;57.22;;;22.35;;
65469;SDS011;52067;50.710;14.492;2023-03-01T00:56:14;76.43;;;24.67;;
65469;SDS011;52067;50.710;14.492;2023-03-01T00:58:40;68.47;;;23.20;;
65469;SDS011;52067;50.710;14.492;2023-03-01T01:01:10;56.05;;;21.00;;
65469;SDS011;52067;50.710;14.492;2023-03-01T01:04:01;63.58;;;21.70;;
65469;SDS011;52067;50.710;14.492;2023-03-01T01:06:40;59.20;;;21.90;;
65469;SDS011;52067;50.710;14.492;2023-03-01T01:09:08;55.47;;;20.85;;
65469;SDS011;52067;50.710;14.492;2023-03-01T01:11:34;58.97;;;22.83;;
65469;SDS011;52067;50.710;14.492;2023-03-01T01:14:01;63.72;;;23.08;;
65469;SDS011;52067;50.710;14.492;2023-03-01T01:16:28;56.85;;;21.73;;
65469;SDS011;52067;50.710;14.492;2023-03-01T01:18:54;81.68;;;28.73;;
65469;SDS011;52067;50.710;14.492;2023-03-01T01:21:21;78.43;;;27.27;;
65469;SDS011;52067;50.710;14.492;2023-03-01T01:23:47;86.90;;;25.73;;
65469;SDS011;52067;50.710;14.492;2023-03-01T01:26:15;71.57;;;24.48;;
65469;SDS011;52067;50.710;14.492;2023-03-01T01:28:42;70.05;;;24.42;;
65469;SDS011;52067;50.710;14.492;2023-03-01T01:31:08;82.90;;;26.35;;
65469;SDS011;52067;50.710;14.492;2023-03-01T01:33:33;81.13;;;26.08;;
65469;SDS011;52067;50.710;14.492;2023-03-01T01:35:59;99.13;;;29.88;;
65469;SDS011;52067;50.710;14.492;2023-03-01T01:38:25;109.38;;;30.27;;
65469;SDS011;52067;50.710;14.492;2023-03-01T01:40:50;86.55;;;28.55;;
65469;SDS011;52067;50.710;14.492;2023-03-01T01:43:18;83.50;;;26.00;;
65469;SDS011;52067;50.710;14.492;2023-03-01T01:45:46;70.68;;;25.15;;
65469;SDS011;52067;50.710;14.492;2023-03-01T01:48:12;66.75;;;22.13;;
65469;SDS011;52067;50.710;14.492;2023-03-01T01:50:41;61.42;;;21.40;;
65469;SDS011;52067;50.710;14.492;2023-03-01T01:53:10;66.55;;;21.17;;
65469;SDS011;52067;50.710;14.492;2023-03-01T01:55:41;46.97;;;18.20;;
65469;SDS011;52067;50.710;14.492;2023-03-01T01:58:10;52.28;;;19.45;;
65469;SDS011;52067;50.710;14.492;2023-03-01T02:00:37;52.08;;;18.27;;
65469;SDS011;52067;50.710;14.492;2023-03-01T02:03:04;61.25;;;19.75;;
65469;SDS011;52067;50.710;14.492;2023-03-01T02:08:05;52.60;;;20.25;;
65469;SDS011;52067;50.710;14.492;2023-03-01T02:10:32;50.65;;;20.38;;
65469;SDS011;52067;50.710;14.492;2023-03-01T02:12:59;60.88;;;22.65;;
65469;SDS011;52067;50.710;14.492;2023-03-01T02:15:25;57.28;;;22.05;;
65469;SDS011;52067;50.710;14.492;2023-03-01T02:17:51;45.85;;;18.77;;
65469;SDS011;52067;50.710;14.492;2023-03-01T02:22:54;49.03;;;18.48;;
65469;SDS011;52067;50.710;14.492;2023-03-01T02:25:55;54.78;;;21.08;;
65469;SDS011;52067;50.710;14.492;2023-03-01T02:28:23;49.15;;;18.80;;
65469;SDS011;52067;50.710;14.492;2023-03-01T02:30:54;60.35;;;19.85;;
65469;SDS011;52067;50.710;14.492;2023-03-01T02:33:38;74.45;;;22.70;;
65469;SDS011;52067;50.710;14.492;2023-03-01T02:36:05;62.50;;;21.83;;
65469;SDS011;52067;50.710;14.492;2023-03-01T02:38:34;61.17;;;22.00;;
65469;SDS011;52067;50.710;14.492;2023-03-01T02:41:00;68.30;;;21.52;;
65469;SDS011;52067;50.710;14.492;2023-03-01T02:43:29;54.28;;;19.83;;
65469;SDS011;52067;50.710;14.492;2023-03-01T02:46:03;57.90;;;20.83;;
65469;SDS011;52067;50.710;14.492;2023-03-01T02:48:39;41.38;;;18.27;;
65469;SDS011;52067;50.710;14.492;2023-03-01T02:56:24;66.25;;;20.38;;
65469;SDS011;52067;50.710;14.492;2023-03-01T02:58:50;59.92;;;22.30;;
65469;SDS011;52067;50.710;14.492;2023-03-01T03:01:16;65.97;;;19.98;;
65469;SDS011;52067;50.710;14.492;2023-03-01T03:03:43;58.20;;;21.88;;
65469;SDS011;52067;50.710;14.492;2023-03-01T03:06:09;60.05;;;21.77;;
65469;SDS011;52067;50.710;14.492;2023-03-01T03:08:35;89.50;;;28.77;;
65469;SDS011;52067;50.710;14.492;2023-03-01T03:11:00;60.95;;;21.55;;
65469;SDS011;52067;50.710;14.492;2023-03-01T03:13:26;49.78;;;20.23;;
65469;SDS011;52067;50.710;14.492;2023-03-01T03:15:53;66.15;;;22.48;;
65469;SDS011;52067;50.710;14.492;2023-03-01T03:18:21;54.88;;;18.48;;
65469;SDS011;52067;50.710;14.492;2023-03-01T03:20:51;90.32;;;27.48;;
65469;SDS011;52067;50.710;14.492;2023-03-01T03:23:18;204.50;;;52.90;;
65469;SDS011;52067;50.710;14.492;2023-03-01T03:25:44;69.60;;;23.88;;
65469;SDS011;52067;50.710;14.492;2023-03-01T03:28:12;62.60;;;22.20;;
65469;SDS011;52067;50.710;14.492;2023-03-01T03:30:39;53.22;;;20.83;;
65469;SDS011;52067;50.710;14.492;2023-03-01T03:33:05;56.33;;;21.15;;
65469;SDS011;52067;50.710;14.492;2023-03-01T03:35:33;51.65;;;19.73;;
65469;SDS011;52067;50.710;14.492;2023-03-01T03:38:04;54.58;;;19.95;;
65469;SDS011;52067;50.710;14.492;2023-03-01T03:40:32;49.78;;;19.08;;
65469;SDS011;52067;50.710;14.492;2023-03-01T03:43:00;47.05;;;18.65;;
65469;SDS011;52067;50.710;14.492;2023-03-01T03:45:26;63.78;;;20.20;;
65469;SDS011;52067;50.710;14.492;2023-03-01T03:47:51;41.88;;;17.35;;
65469;SDS011;52067;50.710;14.492;2023-03-01T03:50:17;39.08;;;16.17;;
65469;SDS011;52067;50.710;14.492;2023-03-01T03:52:43;47.42;;;17.38;;
65469;SDS011;52067;50.710;14.492;2023-03-01T03:55:09;74.65;;;22.27;;
65469;SDS011;52067;50.710;14.492;2023-03-01T03:57:40;68.70;;;22.02;;
65469;SDS011;52067;50.710;14.492;2023-03-01T04:00:09;57.15;;;20.48;;
65469;SDS011;52067;50.710;14.492;2023-03-01T04:02:43;33.50;;;14.70;;
65469;SDS011;52067;50.710;14.492;2023-03-01T04:05:10;48.88;;;18.17;;
65469;SDS011;52067;50.710;14.492;2023-03-01T04:07:37;39.90;;;16.08;;
65469;SDS011;52067;50.710;14.492;2023-03-01T04:10:03;46.28;;;16.98;;
65469;SDS011;52067;50.710;14.492;2023-03-01T04:12:31;46.38;;;18.48;;
65469;SDS011;52067;50.710;14.492;2023-03-01T04:14:59;49.10;;;16.88;;
65469;SDS011;52067;50.710;14.492;2023-03-01T04:17:25;37.67;;;14.48;;
65469;SDS011;52067;50.710;14.492;2023-03-01T04:19:50;42.80;;;16.15;;
65469;SDS011;52067;50.710;14.492;2023-03-01T04:22:15;40.75;;;16.67;;
65469;SDS011;52067;50.710;14.492;2023-03-01T04:24:42;39.90;;;16.83;;
65469;SDS011;52067;50.710;14.492;2023-03-01T04:27:08;40.08;;;16.13;;
65469;SDS011;52067;50.710;14.492;2023-03-01T04:29:34;41.70;;;15.88;;
65469;SDS011;52067;50.710;14.492;2023-03-01T04:31:59;37.33;;;15.10;;
65469;SDS011;52067;50.710;14.492;2023-03-01T04:34:25;37.20;;;15.45;;
65469;SDS011;52067;50.710;14.492;2023-03-01T04:36:51;42.83;;;16.25;;
65469;SDS011;52067;50.710;14.492;2023-03-01T04:39:17;42.05;;;16.23;;
65469;SDS011;52067;50.710;14.492;2023-03-01T04:41:43;34.38;;;15.85;;
65469;SDS011;52067;50.710;14.492;2023-03-01T04:44:08;40.33;;;16.52;;
65469;SDS011;52067;50.710;14.492;2023-03-01T04:46:34;47.15;;;16.63;;
65469;SDS011;52067;50.710;14.492;2023-03-01T04:49:00;42.13;;;16.75;;
65469;SDS011;52067;50.710;14.492;2023-03-01T04:51:26;41.05;;;16.80;;
65469;SDS011;52067;50.710;14.492;2023-03-01T04:53:51;42.38;;;16.45;;
65469;SDS011;52067;50.710;14.492;2023-03-01T04:56:16;42.33;;;16.67;;
65469;SDS011;52067;50.710;14.492;2023-03-01T04:58:45;37.00;;;15.43;;
65469;SDS011;52067;50.710;14.492;2023-03-01T05:01:11;44.08;;;17.48;;
65469;SDS011;52067;50.710;14.492;2023-03-01T05:03:43;34.85;;;14.43;;
65469;SDS011;52067;50.710;14.492;2023-03-01T05:06:10;39.08;;;15.55;;
65469;SDS011;52067;50.710;14.492;2023-03-01T05:08:37;57.88;;;23.40;;
65469;SDS011;52067;50.710;14.492;2023-03-01T05:11:03;42.85;;;16.45;;
65469;SDS011;52067;50.710;14.492;2023-03-01T05:13:28;45.33;;;16.48;;
65469;SDS011;52067;50.710;14.492;2023-03-01T05:16:00;42.20;;;16.77;;
65469;SDS011;52067;50.710;14.492;2023-03-01T05:18:27;49.35;;;17.55;;
65469;SDS011;52067;50.710;14.492;2023-03-01T05:21:01;35.40;;;16.15;;
65469;SDS011;52067;50.710;14.492;2023-03-01T05:23:34;39.05;;;15.80;;
65469;SDS011;52067;50.710;14.492;2023-03-01T05:26:01;37.45;;;16.88;;
65469;SDS011;52067;50.710;14.492;2023-03-01T05:28:29;36.60;;;15.10;;
65469;SDS011;52067;50.710;14.492;2023-03-01T05:30:55;35.80;;;13.88;;
65469;SDS011;52067;50.710;14.492;2023-03-01T05:33:21;38.38;;;15.10;;
65469;SDS011;52067;50.710;14.492;2023-03-01T05:35:47;32.38;;;13.93;;
65469;SDS011;52067;50.710;14.492;2023-03-01T05:38:15;39.65;;;14.93;;
65469;SDS011;52067;50.710;14.492;2023-03-01T05:40:41;49.85;;;17.42;;
65469;SDS011;52067;50.710;14.492;2023-03-01T05:43:09;43.83;;;17.75;;
65469;SDS011;52067;50.710;14.492;2023-03-01T05:45:35;56.03;;;19.23;;
65469;SDS011;52067;50.710;14.492;2023-03-01T05:48:02;57.53;;;21.40;;
65469;SDS011;52067;50.710;14.492;2023-03-01T05:50:31;53.33;;;20.65;;
65469;SDS011;52067;50.710;14.492;2023-03-01T05:52:59;50.00;;;17.95;;
65469;SDS011;52067;50.710;14.492;2023-03-01T05:55:27;49.00;;;20.20;;
65469;SDS011;52067;50.710;14.492;2023-03-01T05:57:53;39.92;;;16.70;;
65469;SDS011;52067;50.710;14.492;2023-03-01T06:00:19;41.92;;;17.95;;
65469;SDS011;52067;50.710;14.492;2023-03-01T06:02:49;45.20;;;18.52;;
65469;SDS011;52067;50.710;14.492;2023-03-01T06:05:17;43.97;;;18.55;;
65469;SDS011;52067;50.710;14.492;2023-03-01T06:07:42;40.47;;;17.20;;
65469;SDS011;52067;50.710;14.492;2023-03-01T06:10:09;42.33;;;16.08;;
65469;SDS011;52067;50.710;14.492;2023-03-01T06:12:36;46.85;;;18.50;;
65469;SDS011;52067;50.710;14.492;2023-03-01T06:15:03;66.43;;;20.88;;
65469;SDS011;52067;50.710;14.492;2023-03-01T06:17:29;77.80;;;24.25;;
65469;SDS011;52067;50.710;14.492;2023-03-01T06:19:56;75.60;;;23.55;;
65469;SDS011;52067;50.710;14.492;2023-03-01T06:22:22;83.43;;;25.88;;
65469;SDS011;52067;50.710;14.492;2023-03-01T06:24:47;93.63;;;30.50;;
65469;SDS011;52067;50.710;14.492;2023-03-01T06:27:13;101.70;;;30.98;;
65469;SDS011;52067;50.710;14.492;2023-03-01T06:29:38;93.15;;;30.10;;
65469;SDS011;52067;50.710;14.492;2023-03-01T06:32:03;70.65;;;25.48;;
65469;SDS011;52067;50.710;14.492;2023-03-01T06:34:29;83.50;;;26.45;;
65469;SDS011;52067;50.710;14.492;2023-03-01T06:36:55;69.22;;;25.27;;
65469;SDS011;52067;50.710;14.492;2023-03-01T06:39:21;82.35;;;24.50;;
65469;SDS011;52067;50.710;14.492;2023-03-01T06:41:46;57.83;;;21.65;;
65469;SDS011;52067;50.710;14.492;2023-03-01T06:44:11;58.85;;;23.38;;
65469;SDS011;52067;50.710;14.492;2023-03-01T06:46:38;67.38;;;23.48;;
65469;SDS011;52067;50.710;14.492;2023-03-01T06:49:03;46.30;;;17.33;;
65469;SDS011;52067;50.710;14.492;2023-03-01T06:51:34;52.33;;;21.15;;
65469;SDS011;52067;50.710;14.492;2023-03-01T06:54:01;70.22;;;22.55;;
65469;SDS011;52067;50.710;14.492;2023-03-01T06:56:27;72.43;;;25.10;;
65469;SDS011;52067;50.710;14.492;2023-03-01T06:58:52;69.07;;;25.85;;
65469;SDS011;52067;50.710;14.492;2023-03-01T07:01:18;60.75;;;23.80;;
65469;SDS011;52067;50.710;14.492;2023-03-01T07:03:43;73.90;;;24.50;;
65469;SDS011;52067;50.710;14.492;2023-03-01T07:06:09;62.13;;;21.75;;
65469;SDS011;52067;50.710;14.492;2023-03-01T07:08:35;56.22;;;22.02;;
65469;SDS011;52067;50.710;14.492;2023-03-01T07:11:00;46.42;;;19.17;;
65469;SDS011;52067;50.710;14.492;2023-03-01T07:13:27;49.65;;;19.73;;
65469;SDS011;52067;50.710;14.492;2023-03-01T07:15:52;53.95;;;20.90;;
65469;SDS011;52067;50.710;14.492;2023-03-01T07:18:18;52.55;;;21.45;;
65469;SDS011;52067;50.710;14.492;2023-03-01T07:20:43;49.95;;;19.27;;
65469;SDS011;52067;50.710;14.492;2023-03-01T07:23:09;57.10;;;21.60;;
65469;SDS011;52067;50.710;14.492;2023-03-01T07:25:35;58.00;;;21.33;;
65469;SDS011;52067;50.710;14.492;2023-03-01T07:28:00;51.97;;;20.05;;
65469;SDS011;52067;50.710;14.492;2023-03-01T07:30:25;52.95;;;20.08;;
65469;SDS011;52067;50.710;14.492;2023-03-01T07:32:53;56.03;;;22.15;;
65469;SDS011;52067;50.710;14.492;2023-03-01T07:35:19;51.25;;;19.58;;
65469;SDS011;52067;50.710;14.492;2023-03-01T07:37:45;40.22;;;16.75;;
65469;SDS011;52067;50.710;14.492;2023-03-01T07:40:10;43.35;;;16.60;;
65469;SDS011;52067;50.710;14.492;2023-03-01T07:42:36;40.58;;;16.60;;
65469;SDS011;52067;50.710;14.492;2023-03-01T07:45:02;45.40;;;17.73;;
65469;SDS011;52067;50.710;14.492;2023-03-01T07:47:29;41.15;;;18.17;;
65469;SDS011;52067;50.710;14.492;2023-03-01T07:49:54;37.03;;;15.00;;
65469;SDS011;52067;50.710;14.492;2023-03-01T07:52:19;33.95;;;14.77;;
65469;SDS011;52067;50.710;14.492;2023-03-01T07:54:45;40.78;;;16.95;;
65469;SDS011;52067;50.710;14.492;2023-03-01T07:57:10;38.03;;;17.17;;
65469;SDS011;52067;50.710;14.492;2023-03-01T07:59:36;47.63;;;20.23;;
65469;SDS011;52067;50.710;14.492;2023-03-01T08:02:01;43.90;;;18.20;;
65469;SDS011;52067;50.710;14.492;2023-03-01T08:04:27;52.78;;;19.73;;
65469;SDS011;52067;50.710;14.492;2023-03-01T08:06:52;54.78;;;20.25;;
65469;SDS011;52067;50.710;14.492;2023-03-01T08:09:18;43.45;;;17.70;;
65469;SDS011;52067;50.710;14.492;2023-03-01T08:11:44;57.35;;;19.10;;
65469;SDS011;52067;50.710;14.492;2023-03-01T08:14:09;43.25;;;19.02;;
65469;SDS011;52067;50.710;14.492;2023-03-01T08:16:35;42.20;;;17.65;;
65469;SDS011;52067;50.710;14.492;2023-03-01T08:19:08;36.47;;;16.05;;
65469;SDS011;52067;50.710;14.492;2023-03-01T08:21:35;36.10;;;15.73;;
65469;SDS011;52067;50.710;14.492;2023-03-01T08:24:01;39.42;;;16.15;;
65469;SDS011;52067;50.710;14.492;2023-03-01T08:26:31;31.80;;;14.43;;
65469;SDS011;52067;50.710;14.492;2023-03-01T08:28:57;36.95;;;15.75;;
65469;SDS011;52067;50.710;14.492;2023-03-01T08:33:50;39.17;;;15.57;;
65469;SDS011;52067;50.710;14.492;2023-03-01T08:36:20;37.70;;;16.05;;
65469;SDS011;52067;50.710;14.492;2023-03-01T08:38:47;39.15;;;16.45;;
65469;SDS011;52067;50.710;14.492;2023-03-01T08:41:13;37.15;;;15.82;;
65469;SDS011;52067;50.710;14.492;2023-03-01T08:43:39;39.90;;;16.85;;
65469;SDS011;52067;50.710;14.492;2023-03-01T08:46:05;38.58;;;16.42;;
65469;SDS011;52067;50.710;14.492;2023-03-01T08:48:30;38.15;;;16.27;;
65469;SDS011;52067;50.710;14.492;2023-03-01T08:50:55;36.40;;;16.45;;
65469;SDS011;52067;50.710;14.492;2023-03-01T08:53:21;41.03;;;16.58;;
65469;SDS011;52067;50.710;14.492;2023-03-01T08:55:46;38.75;;;17.13;;
65469;SDS011;52067;50.710;14.492;2023-03-01T08:58:12;29.75;;;13.07;;
65469;SDS011;52067;50.710;14.492;2023-03-01T09:00:37;37.95;;;15.30;;
65469;SDS011;52067;50.710;14.492;2023-03-01T09:03:03;28.58;;;14.63;;
65469;SDS011;52067;50.710;14.492;2023-03-01T09:05:31;36.35;;;16.63;;
65469;SDS011;52067;50.710;14.492;2023-03-01T09:07:57;33.00;;;14.80;;
65469;SDS011;52067;50.710;14.492;2023-03-01T09:10:23;34.83;;;15.68;;
65469;SDS011;52067;50.710;14.492;2023-03-01T09:12:48;34.42;;;14.77;;
65469;SDS011;52067;50.710;14.492;2023-03-01T09:15:13;40.55;;;13.57;;
65469;SDS011;52067;50.710;14.492;2023-03-01T09:17:39;29.77;;;13.77;;
65469;SDS011;52067;50.710;14.492;2023-03-01T09:20:04;30.98;;;12.98;;
65469;SDS011;52067;50.710;14.492;2023-03-01T09:22:32;26.63;;;12.45;;
65469;SDS011;52067;50.710;14.492;2023-03-01T09:24:59;25.15;;;11.85;;
65469;SDS011;52067;50.710;14.492;2023-03-01T09:27:24;28.13;;;13.52;;
65469;SDS011;52067;50.710;14.492;2023-03-01T09:29:50;28.70;;;12.95;;
65469;SDS011;52067;50.710;14.492;2023-03-01T09:32:15;34.70;;;15.50;;
65469;SDS011;52067;50.710;14.492;2023-03-01T09:34:41;31.48;;;14.38;;
65469;SDS011;52067;50.710;14.492;2023-03-01T09:37:26;27.10;;;13.88;;
65469;SDS011;52067;50.710;14.492;2023-03-01T09:39:51;31.67;;;14.10;;
65469;SDS011;52067;50.710;14.492;2023-03-01T09:42:17;32.08;;;13.88;;
65469;SDS011;52067;50.710;14.492;2023-03-01T09:44:44;29.45;;;14.13;;
65469;SDS011;52067;50.710;14.492;2023-03-01T09:47:41;27.38;;;13.18;;
65469;SDS011;52067;50.710;14.492;2023-03-01T09:52:43;28.35;;;13.52;;
65469;SDS011;52067;50.710;14.492;2023-03-01T10:09:35;30.27;;;13.73;;
65469;SDS011;52067;50.710;14.492;2023-03-01T10:12:15;23.88;;;13.13;;
65469;SDS011;52067;50.710;14.492;2023-03-01T10:22:41;20.20;;;11.80;;
65469;SDS011;52067;50.710;14.492;2023-03-01T10:25:08;21.33;;;12.30;;
65469;SDS011;52067;50.710;14.492;2023-03-01T10:27:52;17.98;;;9.45;;
65469;SDS011;52067;50.710;14.492;2023-03-01T10:33:03;23.15;;;10.80;;
65469;SDS011;52067;50.710;14.492;2023-03-01T10:35:38;23.67;;;11.60;;
65469;SDS011;52067;50.710;14.492;2023-03-01T10:38:09;23.60;;;11.05;;
65469;SDS011;52067;50.710;14.492;2023-03-01T10:43:18;21.02;;;11.48;;
65469;SDS011;52067;50.710;14.492;2023-03-01T10:45:44;21.35;;;12.38;;
65469;SDS011;52067;50.710;14.492;2023-03-01T10:50:49;20.10;;;10.70;;
65469;SDS011;52067;50.710;14.492;2023-03-01T10:56:03;22.20;;;12.50;;
65469;SDS011;52067;50.710;14.492;2023-03-01T10:58:31;20.65;;;11.15;;
65469;SDS011;52067;50.710;14.492;2023-03-01T11:00:59;20.70;;;12.27;;
65469;SDS011;52067;50.710;14.492;2023-03-01T11:03:36;20.42;;;11.48;;
65469;SDS011;52067;50.710;14.492;2023-03-01T11:08:44;20.60;;;11.50;;
65469;SDS011;52067;50.710;14.492;2023-03-01T11:13:52;22.42;;;11.55;;
65469;SDS011;52067;50.710;14.492;2023-03-01T11:16:35;19.67;;;11.90;;
65469;SDS011;52067;50.710;14.492;2023-03-01T11:21:33;19.92;;;11.27;;
65469;SDS011;52067;50.710;14.492;2023-03-01T11:24:01;16.95;;;10.07;;
65469;SDS011;52067;50.710;14.492;2023-03-01T11:26:30;19.55;;;10.73;;
65469;SDS011;52067;50.710;14.492;2023-03-01T11:29:00;19.98;;;10.95;;
65469;SDS011;52067;50.710;14.492;2023-03-01T11:31:31;19.95;;;10.40;;
65469;SDS011;52067;50.710;14.492;2023-03-01T11:34:09;15.57;;;9.73;;
65469;SDS011;52067;50.710;14.492;2023-03-01T11:36:53;17.15;;;9.85;;
65469;SDS011;52067;50.710;14.492;2023-03-01T11:39:25;15.65;;;9.63;;
65469;SDS011;52067;50.710;14.492;2023-03-01T11:42:06;19.35;;;11.02;;
65469;SDS011;52067;50.710;14.492;2023-03-01T11:44:39;18.13;;;10.15;;
65469;SDS011;52067;50.710;14.492;2023-03-01T11:47:16;18.83;;;10.32;;
65469;SDS011;52067;50.710;14.492;2023-03-01T12:00:51;18.38;;;10.88;;
65469;SDS011;52067;50.710;14.492;2023-03-01T12:39:46;15.23;;;7.78;;
65469;SDS011;52067;50.710;14.492;2023-03-01T12:42:39;14.38;;;8.32;;
65469;SDS011;52067;50.710;14.492;2023-03-01T12:48:04;16.75;;;8.18;;
65469;SDS011;52067;50.710;14.492;2023-03-01T12:50:39;18.40;;;9.52;;
65469;SDS011;52067;50.710;14.492;2023-03-01T12:53:15;19.40;;;10.45;;
65469;SDS011;52067;50.710;14.492;2023-03-01T12:56:00;26.50;;;13.80;;
65469;SDS011;52067;50.710;14.492;2023-03-01T13:01:51;18.30;;;10.15;;
65469;SDS011;52067;50.710;14.492;2023-03-01T13:18:33;28.80;;;13.80;;
65469;SDS011;52067;50.710;14.492;2023-03-01T13:30:59;21.50;;;13.02;;
65469;SDS011;52067;50.710;14.492;2023-03-01T13:35:52;26.00;;;13.05;;
65469;SDS011;52067;50.710;14.492;2023-03-01T13:38:37;22.58;;;12.27;;
65469;SDS011;52067;50.710;14.492;2023-03-01T13:41:09;25.25;;;12.02;;
65469;SDS011;52067;50.710;14.492;2023-03-01T13:43:36;17.83;;;9.93;;
65469;SDS011;52067;50.710;14.492;2023-03-01T13:46:24;17.88;;;9.60;;
65469;SDS011;52067;50.710;14.492;2023-03-01T13:48:53;23.05;;;10.57;;
65469;SDS011;52067;50.710;14.492;2023-03-01T13:51:23;21.75;;;11.55;;
65469;SDS011;52067;50.710;14.492;2023-03-01T13:53:50;25.45;;;11.52;;
65469;SDS011;52067;50.710;14.492;2023-03-01T13:56:19;20.60;;;11.13;;
65469;SDS011;52067;50.710;14.492;2023-03-01T13:58:49;18.90;;;10.55;;
65469;SDS011;52067;50.710;14.492;2023-03-01T14:01:22;25.33;;;11.85;;
65469;SDS011;52067;50.710;14.492;2023-03-01T14:03:51;21.67;;;12.50;;
65469;SDS011;52067;50.710;14.492;2023-03-01T14:06:20;14.98;;;8.93;;
65469;SDS011;52067;50.710;14.492;2023-03-01T14:08:49;21.65;;;10.27;;
65469;SDS011;52067;50.710;14.492;2023-03-01T14:17:25;17.38;;;10.60;;
65469;SDS011;52067;50.710;14.492;2023-03-01T14:20:11;20.25;;;10.85;;
65469;SDS011;52067;50.710;14.492;2023-03-01T14:22:45;25.13;;;11.77;;
65469;SDS011;52067;50.710;14.492;2023-03-01T14:25:26;21.48;;;11.98;;
65469;SDS011;52067;50.710;14.492;2023-03-01T14:28:10;14.40;;;6.82;;
65469;SDS011;52067;50.710;14.492;2023-03-01T14:30:38;18.95;;;8.32;;
65469;SDS011;52067;50.710;14.492;2023-03-01T14:33:24;22.10;;;12.10;;
65469;SDS011;52067;50.710;14.492;2023-03-01T14:35:52;24.58;;;13.85;;
65469;SDS011;52067;50.710;14.492;2023-03-01T14:38:20;31.83;;;15.88;;
65469;SDS011;52067;50.710;14.492;2023-03-01T14:40:47;26.23;;;14.13;;
65469;SDS011;52067;50.710;14.492;2023-03-01T14:43:20;27.67;;;15.18;;
65469;SDS011;52067;50.710;14.492;2023-03-01T14:45:49;33.97;;;15.30;;
65469;SDS011;52067;50.710;14.492;2023-03-01T14:48:15;27.92;;;14.85;;
65469;SDS011;52067;50.710;14.492;2023-03-01T14:50:42;27.05;;;14.10;;
65469;SDS011;52067;50.710;14.492;2023-03-01T14:53:20;28.38;;;14.35;;
65469;SDS011;52067;50.710;14.492;2023-03-01T14:55:55;28.23;;;14.40;;
65469;SDS011;52067;50.710;14.492;2023-03-01T14:58:25;26.75;;;14.18;;
65469;SDS011;52067;50.710;14.492;2023-03-01T15:00:52;27.25;;;14.68;;
65469;SDS011;52067;50.710;14.492;2023-03-01T15:03:23;27.95;;;14.80;;
65469;SDS011;52067;50.710;14.492;2023-03-01T15:05:52;30.00;;;13.90;;
65469;SDS011;52067;50.710;14.492;2023-03-01T15:08:23;26.40;;;11.43;;
65469;SDS011;52067;50.710;14.492;2023-03-01T15:10:57;21.10;;;9.75;;
65469;SDS011;52067;50.710;14.492;2023-03-01T15:13:28;24.55;;;12.95;;
65469;SDS011;52067;50.710;14.492;2023-03-01T15:16:02;18.17;;;9.38;;
65469;SDS011;52067;50.710;14.492;2023-03-01T15:18:31;24.50;;;12.52;;
65469;SDS011;52067;50.710;14.492;2023-03-01T15:21:07;25.90;;;13.05;;
65469;SDS011;52067;50.710;14.492;2023-03-01T15:23:58;22.42;;;10.25;;
65469;SDS011;52067;50.710;14.492;2023-03-01T15:26:44;24.25;;;13.57;;
65469;SDS011;52067;50.710;14.492;2023-03-01T15:29:19;26.38;;;13.95;;
65469;SDS011;52067;50.710;14.492;2023-03-01T15:31:57;23.88;;;10.70;;
65469;SDS011;52067;50.710;14.492;2023-03-01T15:34:28;31.30;;;14.95;;
65469;SDS011;52067;50.710;14.492;2023-03-01T15:36:57;23.45;;;12.23;;
65469;SDS011;52067;50.710;14.492;2023-03-01T15:39:35;22.55;;;11.23;;
65469;SDS011;52067;50.710;14.492;2023-03-01T15:42:08;25.50;;;12.70;;
65469;SDS011;52067;50.710;14.492;2023-03-01T15:48:04;23.30;;;11.25;;
65469;SDS011;52067;50.710;14.492;2023-03-01T15:50:40;24.67;;;11.65;;
65469;SDS011;52067;50.710;14.492;2023-03-01T15:53:12;23.90;;;11.73;;
65469;SDS011;52067;50.710;14.492;2023-03-01T15:55:41;25.80;;;13.38;;
65469;SDS011;52067;50.710;14.492;2023-03-01T16:00:37;28.40;;;14.18;;
65469;SDS011;52067;50.710;14.492;2023-03-01T16:03:04;26.08;;;12.50;;
65469;SDS011;52067;50.710;14.492;2023-03-01T16:05:33;31.23;;;14.52;;
65469;SDS011;52067;50.710;14.492;2023-03-01T16:08:01;30.80;;;14.40;;
65469;SDS011;52067;50.710;14.492;2023-03-01T16:10:27;33.47;;;14.82;;
65469;SDS011;52067;50.710;14.492;2023-03-01T16:12:53;41.90;;;17.63;;
65469;SDS011;52067;50.710;14.492;2023-03-01T16:15:21;53.78;;;21.55;;
65469;SDS011;52067;50.710;14.492;2023-03-01T16:17:49;56.88;;;26.02;;
65469;SDS011;52067;50.710;14.492;2023-03-01T16:20:14;65.85;;;28.63;;
65469;SDS011;52067;50.710;14.492;2023-03-01T16:22:41;41.03;;;19.52;;
65469;SDS011;52067;50.710;14.492;2023-03-01T16:25:08;30.48;;;14.73;;
65469;SDS011;52067;50.710;14.492;2023-03-01T16:27:35;28.95;;;13.98;;
65469;SDS011;52067;50.710;14.492;2023-03-01T16:30:00;28.65;;;13.25;;
65469;SDS011;52067;50.710;14.492;2023-03-01T16:32:26;27.13;;;11.85;;
65469;SDS011;52067;50.710;14.492;2023-03-01T16:34:51;31.90;;;14.70;;
65469;SDS011;52067;50.710;14.492;2023-03-01T16:37:16;32.35;;;15.10;;
65469;SDS011;52067;50.710;14.492;2023-03-01T16:39:44;29.65;;;14.13;;
65469;SDS011;52067;50.710;14.492;2023-03-01T16:42:09;34.88;;;14.88;;
65469;SDS011;52067;50.710;14.492;2023-03-01T16:44:34;43.58;;;17.80;;
65469;SDS011;52067;50.710;14.492;2023-03-01T16:47:00;56.28;;;21.63;;